Time;durP1;ratioP1;P1;durP2;ratioP2;P2;SDS_P1;SDS_P2;PMS_P1;PMS_P2;Temp;Humidity;BMP_temperature;BMP_pressure;BME280_temperature;BME280_humidity;BME280_pressure;Samples;Min_cycle;Max_cycle;Signal;HPM_P1;HPM_P2
2022/07/12 00:00:22;;;;;;;8.20;4.50;;;;;;;12.37;100.00;99270.16;105221;1271;61364;-74
2022/07/12 00:03:03;;;;;;;5.00;4.40;;;;;;;12.38;100.00;99267.27;105633;1271;61174;-73
2022/07/12 00:05:29;;;;;;;5.30;4.50;;;;;;;12.38;100.00;99269.73;106045;1268;61462;-73
2022/07/12 00:07:57;;;;;;;6.60;4.80;;;;;;;12.39;100.00;99269.84;106020;1268;61315;-73
2022/07/12 00:10:24;;;;;;;5.00;4.60;;;;;;;12.40;100.00;99270.67;105389;1268;61351;-72
2022/07/12 00:12:50;;;;;;;6.20;4.30;;;;;;;12.41;100.00;99269.31;105200;1268;61356;-73
2022/07/12 00:15:18;;;;;;;6.00;4.20;;;;;;;12.43;100.00;99269.87;105250;1268;61261;-73
2022/07/12 00:17:44;;;;;;;6.10;4.30;;;;;;;12.45;100.00;99267.98;105268;1269;75761;-73
2022/07/12 00:20:10;;;;;;;5.30;4.40;;;;;;;12.46;100.00;99275.23;105228;1269;61469;-72
2022/07/12 00:22:38;;;;;;;6.80;4.40;;;;;;;12.47;100.00;99272.13;104948;1271;61618;-72
2022/07/12 00:25:06;;;;;;;7.50;4.70;;;;;;;12.47;100.00;99274.75;105189;1268;61262;-74
2022/07/12 00:27:32;;;;;;;6.40;4.60;;;;;;;12.48;100.00;99279.51;105212;1268;61371;-72
2022/07/12 00:29:58;;;;;;;7.00;4.60;;;;;;;12.49;100.00;99276.56;105195;1269;61763;-73
2022/07/12 00:32:26;;;;;;;6.90;5.30;;;;;;;12.50;100.00;99273.10;105228;1271;61385;-73
2022/07/12 00:46:20;;;;;;;8.40;6.60;;;;;;;12.60;100.00;99294.19;105236;1271;72767;-74
2022/07/12 00:48:46;;;;;;;14.70;13.30;;;;;;;12.62;100.00;99296.94;105202;1271;70684;-73
2022/07/12 00:51:16;;;;;;;11.80;10.60;;;;;;;12.63;100.00;99299.65;105188;1271;61374;-74
2022/07/12 00:53:42;;;;;;;11.20;9.50;;;;;;;12.64;100.00;99298.91;105244;1271;61325;-73
2022/07/12 00:56:09;;;;;;;9.00;7.90;;;;;;;12.65;100.00;99300.23;105172;1271;61341;-72
2022/07/12 00:58:35;;;;;;;9.60;7.00;;;;;;;12.64;100.00;99296.59;104959;1271;61433;-72
2022/07/12 01:01:01;;;;;;;9.20;7.10;;;;;;;12.63;100.00;99299.18;105197;1271;61374;-73
2022/07/12 01:03:28;;;;;;;12.90;11.00;;;;;;;12.62;100.00;99299.93;105165;1271;61315;-73
2022/07/12 01:05:56;;;;;;;15.70;14.00;;;;;;;12.63;100.00;99299.35;104939;1272;61827;-73
2022/07/12 01:08:23;;;;;;;18.90;17.00;;;;;;;12.62;100.00;99295.29;105324;1271;61281;-73
2022/07/12 01:10:49;;;;;;;13.10;11.30;;;;;;;12.62;100.00;99292.46;104953;1272;75277;-73
2022/07/12 01:13:17;;;;;;;11.70;8.80;;;;;;;12.61;100.00;99295.54;105203;1271;61380;-73
2022/07/12 01:15:44;;;;;;;10.00;8.70;;;;;;;12.60;100.00;99303.84;105197;1271;73347;-73
2022/07/12 01:18:11;;;;;;;14.80;13.30;;;;;;;12.59;100.00;99309.06;105247;1271;61348;-73
2022/07/12 01:20:39;;;;;;;14.10;12.80;;;;;;;12.58;100.00;99305.73;104992;1271;61717;-74
2022/07/12 01:23:05;;;;;;;13.50;11.60;;;;;;;12.58;100.00;99299.70;104990;1271;76600;-72
2022/07/12 01:25:31;;;;;;;12.10;10.90;;;;;;;12.57;100.00;99295.70;105236;1271;61406;-73
2022/07/12 01:27:57;;;;;;;11.10;9.70;;;;;;;12.55;100.00;99291.33;105236;1271;61281;-73
2022/07/12 01:30:24;;;;;;;9.30;8.00;;;;;;;12.53;100.00;99288.61;105188;1271;61269;-73
2022/07/12 01:32:51;;;;;;;7.60;6.50;;;;;;;12.50;100.00;99285.77;105183;1271;61361;-72
2022/07/12 01:35:18;;;;;;;8.30;6.30;;;;;;;12.49;100.00;99283.92;105271;1271;61310;-73
2022/07/12 01:37:44;;;;;;;7.80;6.80;;;;;;;12.46;100.00;99287.52;105189;1271;61287;-73
2022/07/12 01:40:12;;;;;;;7.70;6.90;;;;;;;12.44;100.00;99288.56;105222;1270;61381;-73
2022/07/12 01:42:41;;;;;;;10.60;8.50;;;;;;;12.42;100.00;99285.50;105333;1271;61275;-72
2022/07/12 01:45:10;;;;;;;12.90;11.70;;;;;;;12.41;100.00;99279.52;104970;1271;61277;-72
2022/07/12 01:47:36;;;;;;;20.70;18.80;;;;;;;12.42;100.00;99277.11;105114;1271;73814;-72
2022/07/12 01:50:08;;;;;;;20.70;18.60;;;;;;;12.42;100.00;99281.92;105033;1274;68408;-73
2022/07/12 01:52:36;;;;;;;23.00;20.70;;;;;;;12.42;100.00;99279.61;105229;1271;73548;-73
2022/07/12 01:55:05;;;;;;;26.50;24.00;;;;;;;12.42;100.00;99282.24;105272;1271;61233;-73
2022/07/12 01:57:32;;;;;;;23.80;21.30;;;;;;;12.41;100.00;99280.71;105052;1271;61865;-72
2022/07/12 02:00:32;;;;;;;24.20;21.80;;;;;;;12.40;100.00;99279.70;105215;1271;75154;-72
2022/07/12 02:03:00;;;;;;;29.30;24.90;;;;;;;12.39;100.00;99274.80;104892;1274;70339;-72
2022/07/12 02:05:26;;;;;;;27.20;24.50;;;;;;;12.38;100.00;99274.86;104940;1274;73394;-71
2022/07/12 02:07:54;;;;;;;33.50;28.00;;;;;;;12.38;100.00;99272.03;104889;1274;61395;-73
2022/07/12 02:10:20;;;;;;;26.50;24.00;;;;;;;12.37;100.00;99269.59;104984;1274;62020;-73
2022/07/12 02:12:46;;;;;;;24.50;19.90;;;;;;;12.36;100.00;99278.08;104907;1273;61419;-73
2022/07/12 02:15:12;;;;;;;17.40;15.40;;;;;;;12.34;100.00;99276.04;104962;1271;61385;-73
2022/07/12 02:17:40;;;;;;;14.00;11.60;;;;;;;12.32;100.00;99273.86;104934;1274;61379;-74
2022/07/12 02:20:09;;;;;;;13.10;11.80;;;;;;;12.32;100.00;99280.68;104655;1274;61893;-73
2022/07/12 02:22:35;;;;;;;15.20;13.60;;;;;;;12.29;100.00;99278.84;104943;1274;61474;-72
2022/07/12 02:25:01;;;;;;;15.30;13.80;;;;;;;12.28;100.00;99282.85;104941;1274;61385;-72
2022/07/12 02:27:29;;;;;;;22.00;17.50;;;;;;;12.27;100.00;99279.54;104922;1273;70251;-74
2022/07/12 02:29:55;;;;;;;17.00;15.30;;;;;;;12.28;100.00;99274.52;104917;1274;61579;-73
2022/07/12 02:32:21;;;;;;;15.50;14.20;;;;;;;12.29;100.00;99278.86;104896;1274;61471;-74
2022/07/12 02:34:49;;;;;;;15.80;14.30;;;;;;;12.30;100.00;99276.33;105193;1271;61341;-75
2022/07/12 02:37:16;;;;;;;13.80;12.40;;;;;;;12.31;100.00;99276.63;105235;1269;73336;-73
2022/07/12 02:39:42;;;;;;;14.70;13.20;;;;;;;12.33;100.00;99272.92;105257;1271;69405;-73
2022/07/12 02:42:10;;;;;;;15.00;13.40;;;;;;;12.35;100.00;99271.34;105250;1271;61374;-73
2022/07/12 02:44:35;;;;;;;12.50;11.30;;;;;;;12.35;100.00;99271.90;105232;1271;61281;-73
2022/07/12 02:47:01;;;;;;;10.20;8.50;;;;;;;12.36;100.00;99271.52;105277;1269;61654;-74
2022/07/12 02:49:28;;;;;;;10.00;8.20;;;;;;;12.35;100.00;99276.17;105288;1271;61361;-73
2022/07/12 02:51:54;;;;;;;11.20;8.50;;;;;;;12.36;100.00;99278.27;105277;1270;61291;-73
2022/07/12 02:54:20;;;;;;;9.80;8.50;;;;;;;12.36;100.00;99277.02;105203;1271;61390;-72
2022/07/12 02:56:46;;;;;;;11.20;8.40;;;;;;;12.37;100.00;99279.95;105215;1271;61366;-73
2022/07/12 02:59:12;;;;;;;9.90;8.90;;;;;;;12.37;100.00;99279.79;105268;1271;61357;-72
2022/07/12 03:01:38;;;;;;;11.30;8.00;;;;;;;12.38;100.00;99276.17;105230;1271;61372;-72
2022/07/12 03:04:04;;;;;;;8.80;7.90;;;;;;;12.38;100.00;99277.55;105229;1271;61342;-72
2022/07/12 03:06:30;;;;;;;8.30;7.50;;;;;;;12.41;100.00;99278.78;104980;1268;61243;-72
2022/07/12 03:08:56;;;;;;;7.70;6.90;;;;;;;12.42;100.00;99281.89;105203;1271;61272;-72
2022/07/12 03:11:22;;;;;;;7.30;6.60;;;;;;;12.43;100.00;99286.15;105209;1268;61390;-72
2022/07/12 03:13:48;;;;;;;9.30;6.80;;;;;;;12.43;100.00;99285.73;105180;1271;61741;-72
2022/07/12 03:16:13;;;;;;;7.50;6.70;;;;;;;12.43;100.00;99287.17;105160;1271;61416;-72
2022/07/12 03:18:41;;;;;;;7.60;6.60;;;;;;;12.43;100.00;99286.14;105221;1271;61374;-72
2022/07/12 03:21:07;;;;;;;7.30;5.50;;;;;;;12.40;100.00;99282.38;105231;1271;61856;-72
2022/07/12 03:23:33;;;;;;;6.50;5.30;;;;;;;12.39;100.00;99285.14;105228;1272;61342;-73
2022/07/12 03:25:59;;;;;;;5.80;4.90;;;;;;;12.38;100.00;99286.98;105211;1270;61396;-73
2022/07/12 03:28:26;;;;;;;5.10;4.60;;;;;;;12.39;100.00;99288.55;105200;1271;61298;-73
2022/07/12 03:30:51;;;;;;;6.00;4.50;;;;;;;12.39;100.00;99291.73;104976;1272;62095;-73
2022/07/12 03:33:18;;;;;;;5.40;4.40;;;;;;;12.41;100.00;99292.71;105225;1271;61305;-72
2022/07/12 03:35:44;;;;;;;6.00;4.50;;;;;;;12.43;100.00;99296.25;105194;1271;69007;-74
2022/07/12 03:38:10;;;;;;;7.10;4.60;;;;;;;12.45;100.00;99294.84;105191;1271;61379;-72
2022/07/12 03:40:36;;;;;;;5.90;3.90;;;;;;;12.49;100.00;99296.59;105190;1271;61365;-73
2022/07/12 03:43:02;;;;;;;8.10;4.10;;;;;;;12.53;100.00;99296.51;105190;1268;61265;-73
2022/07/12 03:45:28;;;;;;;5.70;3.70;;;;;;;12.58;100.00;99294.90;105184;1272;61369;-74
2022/07/12 03:47:54;;;;;;;4.50;3.70;;;;;;;12.61;100.00;99289.65;104957;1271;61529;-74
2022/07/12 03:50:21;;;;;;;5.80;4.20;;;;;;;12.64;100.00;99291.25;105190;1272;61371;-73
2022/07/12 03:52:47;;;;;;;5.70;3.80;;;;;;;12.66;100.00;99294.10;104888;1275;61527;-72
2022/07/12 03:55:14;;;;;;;4.40;3.40;;;;;;;12.69;100.00;99292.85;105021;1274;61449;-72
2022/07/12 03:57:40;;;;;;;4.40;3.10;;;;;;;12.72;100.00;99293.34;105219;1272;61283;-75
2022/07/12 04:00:12;;;;;;;5.70;3.80;;;;;;;12.77;100.00;99289.45;105209;1272;61367;-75
2022/07/12 04:02:39;;;;;;;6.30;3.80;;;;;;;12.86;100.00;99291.80;104958;1274;74509;-73
2022/07/12 04:05:07;;;;;;;3.40;3.10;;;;;;;13.22;100.00;99284.93;105192;1268;61378;-73
2022/07/12 04:07:33;;;;;;;5.40;3.20;;;;;;;14.86;100.00;99274.86;105039;1273;61157;-74
2022/07/12 04:09:59;;;;;;;3.60;2.40;;;;;;;16.23;100.00;99266.80;105230;1271;61241;-73
2022/07/12 04:12:25;;;;;;;4.20;2.80;;;;;;;16.57;100.00;99266.57;105209;1271;61308;-73
2022/07/12 04:14:52;;;;;;;4.50;2.20;;;;;;;17.88;100.00;99271.28;104962;1272;61454;-73
2022/07/12 04:17:18;;;;;;;4.90;2.30;;;;;;;19.12;100.00;99269.02;105183;1271;61305;-74
2022/07/12 04:19:44;;;;;;;4.50;2.30;;;;;;;20.02;100.00;99274.19;105241;1272;61285;-72
2022/07/12 04:22:10;;;;;;;2.90;2.00;;;;;;;20.66;100.00;99276.61;105210;1272;61378;-74
2022/07/12 04:24:36;;;;;;;4.70;2.20;;;;;;;21.19;100.00;99278.84;105177;1271;61396;-73
2022/07/12 04:27:02;;;;;;;4.10;2.70;;;;;;;21.19;100.00;99276.12;105194;1272;61384;-72
2022/07/12 04:29:28;;;;;;;6.30;3.00;;;;;;;20.85;100.00;99275.35;105209;1270;61448;-73
2022/07/12 04:31:54;;;;;;;4.20;2.60;;;;;;;20.30;100.00;99276.58;105212;1271;61284;-73
2022/07/12 04:34:20;;;;;;;3.70;3.10;;;;;;;19.70;100.00;99279.19;105226;1271;69505;-73
2022/07/12 04:36:47;;;;;;;3.40;2.70;;;;;;;19.78;100.00;99270.50;105214;1271;61282;-73
2022/07/12 04:39:14;;;;;;;4.40;2.10;;;;;;;19.64;100.00;99270.09;105351;1271;61271;-72
2022/07/12 04:41:40;;;;;;;3.70;2.00;;;;;;;19.60;100.00;99259.88;105195;1271;61297;-73
2022/07/12 04:44:06;;;;;;;2.90;1.70;;;;;;;18.94;100.00;99256.42;105214;1271;61364;-73
2022/07/12 04:46:33;;;;;;;2.90;1.80;;;;;;;18.47;100.00;99264.70;105234;1270;61365;-73
2022/07/12 04:49:00;;;;;;;2.90;1.90;;;;;;;18.03;100.00;99280.37;105203;1271;61400;-72
2022/07/12 04:51:27;;;;;;;3.50;2.60;;;;;;;17.54;100.00;99286.05;105221;1271;61263;-73
2022/07/12 04:53:53;;;;;;;5.30;3.10;;;;;;;17.03;100.00;99293.02;105057;1274;61192;-72
2022/07/12 04:56:19;;;;;;;4.50;2.10;;;;;;;16.57;100.00;99294.52;105183;1271;61378;-74
2022/07/12 04:58:45;;;;;;;6.40;2.30;;;;;;;16.35;100.00;99289.95;105310;1271;61333;-73
2022/07/12 05:01:11;;;;;;;2.70;2.10;;;;;;;16.29;100.00;99290.88;105778;1270;61439;-72
2022/07/12 05:03:36;;;;;;;6.70;2.60;;;;;;;16.21;100.00;99291.85;105974;1271;61284;-72
2022/07/12 05:06:03;;;;;;;5.30;2.90;;;;;;;16.42;100.00;99294.23;105746;1269;62076;-74
2022/07/12 05:08:29;;;;;;;4.90;3.00;;;;;;;16.72;100.00;99295.88;105192;1272;61364;-73
2022/07/12 05:10:55;;;;;;;6.00;2.80;;;;;;;16.95;100.00;99289.15;105273;1271;61403;-73
2022/07/12 05:13:21;;;;;;;5.50;2.90;;;;;;;17.04;100.00;99290.23;105259;1271;61309;-74
2022/07/12 05:15:47;;;;;;;4.00;2.50;;;;;;;17.42;100.00;99286.84;105249;1271;61443;-75
2022/07/12 05:18:13;;;;;;;3.70;2.40;;;;;;;17.79;100.00;99285.60;105171;1271;61257;-73
2022/07/12 05:20:39;;;;;;;2.60;2.00;;;;;;;18.08;100.00;99285.87;105208;1270;61433;-73
2022/07/12 05:23:05;;;;;;;2.80;2.30;;;;;;;18.33;100.00;99281.27;105214;1271;61301;-74
2022/07/12 05:25:31;;;;;;;4.80;2.60;;;;;;;19.12;100.00;99273.57;105055;1271;61409;-73
2022/07/12 05:27:57;;;;;;;4.30;2.60;;;;;;;19.37;100.00;99273.61;105213;1271;61358;-74
2022/07/12 05:30:23;;;;;;;6.10;2.70;;;;;;;19.87;100.00;99270.80;105202;1271;61383;-73
2022/07/12 05:32:49;;;;;;;5.80;2.60;;;;;;;19.91;100.00;99276.39;105213;1271;61731;-73
2022/07/12 05:35:15;;;;;;;4.80;2.80;;;;;;;19.58;100.00;99280.89;105227;1271;61503;-74
2022/07/12 05:37:41;;;;;;;3.50;2.90;;;;;;;19.11;100.00;99283.95;105283;1271;61308;-73
2022/07/12 05:40:08;;;;;;;5.30;2.30;;;;;;;19.65;100.00;99276.55;105265;1271;61399;-73
2022/07/12 05:42:34;;;;;;;3.10;2.60;;;;;;;20.38;100.00;99274.98;105227;1271;61344;-73
2022/07/12 05:45:00;;;;;;;5.90;2.80;;;;;;;21.01;100.00;99273.16;105220;1271;61278;-73
2022/07/12 05:47:26;;;;;;;3.60;2.70;;;;;;;21.56;100.00;99270.02;105231;1270;61371;-73
2022/07/12 05:49:52;;;;;;;2.30;2.10;;;;;;;21.92;100.00;99272.92;105179;1271;61268;-73
2022/07/12 05:55:02;;;;;;;4.00;2.40;;;;;;;21.81;100.00;99274.67;105224;1271;71014;-74
2022/07/12 05:57:29;;;;;;;5.50;2.50;;;;;;;21.54;100.00;99272.02;105209;1271;74379;-74
2022/07/12 05:59:56;;;;;;;4.00;2.50;;;;;;;21.36;100.00;99272.97;105201;1271;61384;-74
2022/07/12 06:02:22;;;;;;;3.50;2.70;;;;;;;21.60;100.00;99276.42;105180;1271;61399;-74
2022/07/12 06:04:48;;;;;;;5.00;2.20;;;;;;;21.39;100.00;99278.88;105197;1271;61394;-74
2022/07/12 06:07:14;;;;;;;3.60;2.40;;;;;;;21.56;100.00;99272.33;105194;1271;61307;-73
2022/07/12 06:09:40;;;;;;;4.60;2.70;;;;;;;21.52;100.00;99268.63;104939;1274;61281;-74
2022/07/12 06:12:07;;;;;;;3.80;2.60;;;;;;;21.55;100.00;99267.40;104991;1272;61373;-74
2022/07/12 06:14:33;;;;;;;2.60;2.20;;;;;;;21.86;100.00;99267.61;104994;1274;61275;-74
2022/07/12 06:16:59;;;;;;;4.50;2.40;;;;;;;22.27;100.00;99264.91;104960;1272;62778;-73
2022/07/12 06:19:26;;;;;;;6.00;3.30;;;;;;;22.34;100.00;99264.38;105276;1271;61483;-73
2022/07/12 06:21:52;;;;;;;6.40;2.30;;;;;;;22.47;100.00;99264.53;105221;1271;61285;-73
2022/07/12 06:24:18;;;;;;;4.10;2.30;;;;;;;22.69;100.00;99262.73;105239;1271;61288;-74
2022/07/12 06:26:45;;;;;;;3.00;1.90;;;;;;;22.90;100.00;99260.11;104979;1272;61764;-75
2022/07/12 06:29:10;;;;;;;4.50;2.40;;;;;;;23.15;100.00;99263.98;105236;1271;61361;-74
2022/07/12 06:31:36;;;;;;;6.50;1.90;;;;;;;23.51;100.00;99258.09;105263;1270;61912;-74
2022/07/12 06:34:02;;;;;;;2.60;2.30;;;;;;;23.62;100.00;99261.30;105227;1271;61249;-73
2022/07/12 06:36:28;;;;;;;4.40;2.10;;;;;;;23.35;100.00;99259.36;105248;1270;61384;-74
2022/07/12 06:38:54;;;;;;;4.50;2.20;;;;;;;23.50;100.00;99250.16;105194;1269;61351;-74
2022/07/12 06:41:20;;;;;;;4.40;2.30;;;;;;;23.67;100.00;99250.92;105233;1270;61394;-74
2022/07/12 06:43:46;;;;;;;4.80;2.50;;;;;;;23.72;100.00;99248.46;105187;1271;61427;-74
2022/07/12 06:46:12;;;;;;;3.90;3.40;;;;;;;23.83;100.00;99249.90;105200;1271;61318;-74
2022/07/12 06:48:38;;;;;;;4.10;1.90;;;;;;;23.60;100.00;99253.55;105228;1270;61274;-74
2022/07/12 06:51:04;;;;;;;2.90;1.60;;;;;;;23.51;100.00;99252.10;105233;1271;61355;-73
2022/07/12 06:53:30;;;;;;;6.70;3.30;;;;;;;23.48;100.00;99254.73;105243;1271;61400;-74
2022/07/12 06:55:57;;;;;;;4.30;2.00;;;;;;;23.34;100.00;99258.59;105244;1271;61281;-74
2022/07/12 06:58:24;;;;;;;3.10;1.80;;;;;;;23.12;100.00;99263.48;105279;1271;61478;-74
2022/07/12 07:00:50;;;;;;;3.40;1.90;;;;;;;22.77;100.00;99262.77;105303;1271;76108;-74
2022/07/12 07:03:16;;;;;;;3.90;1.70;;;;;;;22.78;100.00;99264.65;104992;1274;61266;-74
2022/07/12 07:05:43;;;;;;;2.20;1.80;;;;;;;22.88;100.00;99260.19;105131;1271;61304;-74
2022/07/12 07:08:08;;;;;;;2.30;1.70;;;;;;;22.91;100.00;99259.65;105135;1271;61272;-74
2022/07/12 07:10:35;;;;;;;5.70;2.00;;;;;;;23.01;100.00;99259.52;105180;1271;61406;-76
2022/07/12 07:13:01;;;;;;;4.30;2.00;;;;;;;22.89;100.00;99261.75;105047;1271;61345;-75
2022/07/12 07:15:27;;;;;;;2.80;1.70;;;;;;;22.90;100.00;99260.42;105205;1271;61301;-74
2022/07/12 07:17:53;;;;;;;1.70;1.60;;;;;;;23.05;100.00;99264.27;105219;1271;61221;-75
2022/07/12 07:20:19;;;;;;;2.50;1.60;;;;;;;23.24;100.00;99262.11;105227;1271;61378;-74
2022/07/12 07:22:45;;;;;;;3.80;1.30;;;;;;;23.18;100.00;99262.00;104926;1274;75259;-74
2022/07/12 07:25:11;;;;;;;2.00;1.20;;;;;;;23.14;100.00;99263.55;105233;1271;61438;-73
2022/07/12 07:27:38;;;;;;;1.60;1.40;;;;;;;23.11;100.00;99257.28;105217;1271;61382;-73
2022/07/12 07:32:51;;;;;;;3.40;1.30;;;;;;;22.84;100.00;99258.46;104917;1271;61333;-74
2022/07/12 07:35:17;;;;;;;1.90;1.30;;;;;;;22.60;100.00;99259.83;105209;1271;61387;-74
2022/07/12 07:37:43;;;;;;;2.60;1.00;;;;;;;22.55;100.00;99260.18;104910;1271;61377;-72
2022/07/12 07:40:12;;;;;;;2.20;1.10;;;;;;;22.59;100.00;99266.25;104887;1274;61421;-73
2022/07/12 07:42:38;;;;;;;1.10;0.90;;;;;;;22.33;100.00;99267.83;105210;1271;61434;-73
2022/07/12 07:45:07;;;;;;;1.40;1.20;;;;;;;22.04;100.00;99269.02;105197;1271;61330;-74
2022/07/12 07:47:47;;;;;;;;;;;;;;;21.65;100.00;99270.78;105224;1271;74416;-73
2022/07/12 07:50:12;;;;;;;1.10;1.00;;;;;;;21.55;100.00;99273.00;104960;1272;68702;-73
2022/07/12 07:52:39;;;;;;;1.70;0.80;;;;;;;21.59;100.00;99273.32;105157;1270;61394;-73
2022/07/12 07:55:06;;;;;;;2.90;0.70;;;;;;;21.84;100.00;99269.45;105167;1271;61268;-73
2022/07/12 07:57:32;;;;;;;2.10;0.80;;;;;;;21.93;100.00;99271.36;105253;1271;61288;-74
2022/07/12 07:59:59;;;;;;;3.10;0.90;;;;;;;21.91;100.00;99267.94;105251;1271;61361;-73
2022/07/12 08:02:25;;;;;;;1.10;1.00;;;;;;;21.89;100.00;99267.02;105180;1271;61300;-73
2022/07/12 08:04:51;;;;;;;2.70;1.30;;;;;;;21.70;100.00;99269.95;105162;1270;61374;-74
2022/07/12 08:07:18;;;;;;;1.50;0.80;;;;;;;21.46;100.00;99269.44;104874;1271;61327;-73
2022/07/12 08:09:44;;;;;;;1.80;0.70;;;;;;;21.54;100.00;99266.19;105163;1271;61262;-72
2022/07/12 08:12:09;;;;;;;3.30;1.10;;;;;;;21.52;100.00;99263.89;105193;1271;61294;-72
2022/07/12 08:14:36;;;;;;;1.40;0.80;;;;;;;21.43;100.00;99273.92;105222;1270;61295;-73
2022/07/12 08:17:02;;;;;;;1.00;0.90;;;;;;;21.38;100.00;99273.00;105173;1269;61394;-74
2022/07/12 08:19:28;;;;;;;2.50;0.90;;;;;;;21.34;100.00;99271.40;104926;1272;61486;-74
2022/07/12 08:21:54;;;;;;;1.10;0.90;;;;;;;21.45;100.00;99268.61;105062;1271;61292;-74
2022/07/12 08:24:20;;;;;;;2.30;1.00;;;;;;;21.72;100.00;99265.48;104844;1274;61390;-74
2022/07/12 08:26:46;;;;;;;0.80;0.60;;;;;;;21.83;100.00;99264.85;105014;1271;61372;-74
2022/07/12 08:29:12;;;;;;;0.60;0.60;;;;;;;21.95;100.00;99265.39;105266;1271;61327;-74
2022/07/12 08:31:38;;;;;;;2.20;0.90;;;;;;;22.19;100.00;99265.03;105225;1271;61396;-73
2022/07/12 08:34:04;;;;;;;5.40;1.10;;;;;;;22.38;100.00;99265.37;105206;1271;61851;-73
2022/07/12 08:36:30;;;;;;;1.90;0.80;;;;;;;22.31;100.00;99258.69;105214;1271;61335;-73
2022/07/12 08:38:56;;;;;;;0.70;0.60;;;;;;;22.29;100.00;99257.45;104983;1271;61308;-75
2022/07/12 08:41:22;;;;;;;2.50;0.90;;;;;;;22.05;100.00;99268.22;105242;1271;61268;-74
2022/07/12 08:43:48;;;;;;;1.70;0.80;;;;;;;22.03;100.00;99260.55;104935;1271;61441;-75
2022/07/12 08:46:15;;;;;;;1.30;0.70;;;;;;;22.09;100.00;99262.59;105204;1271;61357;-74
2022/07/12 08:48:42;;;;;;;2.00;0.70;;;;;;;21.86;100.00;99261.79;105175;1271;61269;-75
2022/07/12 08:51:10;;;;;;;1.70;0.60;;;;;;;21.78;100.00;99261.11;105233;1271;61274;-74
2022/07/12 08:53:37;;;;;;;2.80;0.70;;;;;;;21.72;100.00;99259.23;105360;1271;61362;-75
2022/07/12 08:56:05;;;;;;;0.70;0.60;;;;;;;21.46;100.00;99267.02;105317;1270;61182;-74
2022/07/12 08:58:31;;;;;;;1.30;0.60;;;;;;;21.42;100.00;99263.89;105246;1271;75187;-73
2022/07/12 09:00:57;;;;;;;0.80;0.60;;;;;;;21.37;100.00;99270.42;105224;1271;61400;-74
2022/07/12 09:03:23;;;;;;;1.30;0.80;;;;;;;21.14;100.00;99268.82;105184;1271;61279;-73
2022/07/12 09:05:57;;;;;;;2.30;0.70;;;;;;;20.91;100.00;99269.27;105174;1271;61332;-73
2022/07/12 09:08:33;;;;;;;1.90;0.60;;;;;;;20.74;100.00;99272.38;105226;1271;61961;-73
2022/07/12 09:11:03;;;;;;;0.80;0.70;;;;;;;20.58;100.00;99275.58;105259;1271;75381;-73
2022/07/12 09:13:52;;;;;;;0.80;0.60;;;;;;;20.37;100.00;99271.11;105250;1271;70621;-73
2022/07/12 09:16:23;;;;;;;1.70;0.70;;;;;;;20.06;100.00;99276.44;105185;1271;73781;-73
2022/07/12 09:18:50;;;;;;;2.10;0.80;;;;;;;19.93;100.00;99280.69;105350;1271;61210;-73
2022/07/12 09:21:23;;;;;;;0.80;0.80;;;;;;;19.86;100.00;99284.61;105318;1271;61292;-73
2022/07/12 09:23:57;;;;;;;2.40;0.80;;;;;;;19.78;100.00;99281.84;105027;1271;75254;-74
2022/07/12 09:26:32;;;;;;;3.00;1.50;;;;;;;19.87;100.00;99280.77;104903;1272;69303;-74
2022/07/12 09:29:10;;;;;;;1.70;0.80;;;;;;;19.98;100.00;99290.98;105329;1270;74423;-72
2022/07/12 09:31:39;;;;;;;1.20;0.80;;;;;;;20.13;100.00;99297.57;105373;1271;61225;-74
2022/07/12 09:36:58;;;;;;;1.00;0.90;;;;;;;20.70;100.00;99302.56;105150;1271;75175;-73
2022/07/12 09:39:25;;;;;;;1.60;0.70;;;;;;;21.21;100.00;99300.14;105325;1271;67645;-73
2022/07/12 09:41:54;;;;;;;2.70;1.00;;;;;;;21.73;100.00;99292.03;105282;1271;74775;-74
2022/07/12 09:44:20;;;;;;;2.10;0.70;;;;;;;21.99;100.00;99291.86;105010;1271;304986;-75
2022/07/12 09:46:48;;;;;;;1.50;0.60;;;;;;;22.08;100.00;99294.38;105222;1271;61233;-74
2022/07/12 09:49:14;;;;;;;2.90;1.20;;;;;;;22.04;100.00;99289.14;105258;1271;75289;-73
2022/07/12 09:51:44;;;;;;;0.60;0.60;;;;;;;22.20;100.00;99286.15;105196;1271;61443;-74
2022/07/12 09:54:15;;;;;;;1.80;0.60;;;;;;;22.40;100.00;99284.45;105282;1271;73656;-73
2022/07/12 09:56:46;;;;;;;0.90;0.90;;;;;;;22.44;100.00;99282.58;105283;1271;60485;-74
2022/07/12 09:59:14;;;;;;;2.00;0.80;;;;;;;22.05;100.00;99287.38;105278;1271;61256;-74
2022/07/12 10:01:40;;;;;;;3.70;0.80;;;;;;;21.65;100.00;99279.70;105268;1271;75496;-73
2022/07/12 10:04:09;;;;;;;3.60;0.80;;;;;;;21.43;100.00;99275.14;105298;1271;70352;-74
2022/07/12 10:06:35;;;;;;;1.70;0.70;;;;;;;21.16;100.00;99273.84;105056;1271;74256;-74
2022/07/12 10:09:02;;;;;;;1.70;0.70;;;;;;;20.94;100.00;99269.89;105207;1271;61374;-74
2022/07/12 10:11:29;;;;;;;3.50;0.80;;;;;;;20.77;100.00;99271.33;105353;1271;61748;-72
2022/07/12 10:13:55;;;;;;;3.20;1.10;;;;;;;20.67;100.00;99272.55;105214;1271;61259;-74
2022/07/12 10:16:29;;;;;;;1.10;0.60;;;;;;;20.61;100.00;99272.06;106134;1270;61255;-73
2022/07/12 10:19:22;;;;;;;0.90;0.80;;;;;;;20.70;100.00;99271.03;106597;1270;73409;-74
2022/07/12 10:21:50;;;;;;;2.80;0.80;;;;;;;20.99;100.00;99265.61;105455;1271;61333;-73
2022/07/12 10:24:42;;;;;;;1.70;0.70;;;;;;;21.31;100.00;99262.14;105233;1271;61819;-73
2022/07/12 10:27:14;;;;;;;2.60;0.80;;;;;;;21.42;100.00;99254.09;105250;1270;74357;-74
2022/07/12 10:29:42;;;;;;;0.80;0.70;;;;;;;21.21;100.00;99256.23;105217;1271;70251;-72
2022/07/12 10:32:24;;;;;;;2.50;0.80;;;;;;;20.82;100.00;99258.35;105277;1271;74244;-73
2022/07/12 10:35:05;;;;;;;2.10;0.80;;;;;;;20.43;100.00;99277.20;104973;1271;61457;-73
2022/07/12 10:37:32;;;;;;;3.10;1.10;;;;;;;19.87;100.00;99322.74;105375;1271;61195;-73
2022/07/12 10:40:17;;;;;;;8.20;1.50;;;;;;;18.78;100.00;99349.79;105292;1271;74215;-72
2022/07/12 10:43:08;;;;;;;7.00;1.50;;;;;;;17.38;100.00;99356.13;105354;1271;69302;-72
2022/07/12 10:45:38;;;;;;;3.10;0.70;;;;;;;16.32;100.00;99357.67;105269;1271;73642;-72
2022/07/12 10:48:05;;;;;;;2.00;0.90;;;;;;;15.73;100.00;99355.39;105217;1271;61381;-71
2022/07/12 10:50:43;;;;;;;5.90;1.10;;;;;;;15.45;100.00;99358.77;105217;1271;61991;-72
2022/07/12 10:53:26;;;;;;;3.70;0.90;;;;;;;15.34;100.00;99351.23;105218;1271;75532;-72
2022/07/12 10:56:19;;;;;;;2.80;1.20;;;;;;;15.33;100.00;99345.06;105324;1268;69399;-72
2022/07/12 10:58:49;;;;;;;3.70;1.30;;;;;;;15.46;100.00;99336.88;105273;1270;74225;-72
2022/07/12 11:01:19;;;;;;;1.30;0.80;;;;;;;15.65;100.00;99331.36;104955;1271;61458;-72
2022/07/12 11:03:54;;;;;;;2.50;0.70;;;;;;;15.81;100.00;99323.03;105271;1271;61243;-72
2022/07/12 11:06:23;;;;;;;2.00;0.80;;;;;;;15.94;100.00;99312.25;105034;1271;75455;-72
2022/07/12 11:09:03;;;;;;;1.80;1.10;;;;;;;16.18;100.00;99311.18;105209;1271;69611;-73
2022/07/12 11:11:32;;;;;;;3.20;1.20;;;;;;;16.40;100.00;99305.69;105215;1271;73568;-72
2022/07/12 11:14:00;;;;;;;1.00;0.80;;;;;;;16.59;100.00;99302.98;105226;1268;61308;-73
2022/07/12 11:16:26;;;;;;;1.60;0.80;;;;;;;16.75;100.00;99295.87;105214;1268;61278;-74
2022/07/12 11:18:53;;;;;;;1.10;0.70;;;;;;;16.93;100.00;99294.33;105048;1271;74279;-72
2022/07/12 11:21:21;;;;;;;1.00;0.80;;;;;;;17.14;100.00;99290.03;105214;1268;69169;-72
2022/07/12 11:23:47;;;;;;;1.10;0.80;;;;;;;17.36;100.00;99289.89;105209;1269;74338;-73
2022/07/12 11:26:14;;;;;;;0.70;0.60;;;;;;;17.53;100.00;99285.83;105176;1268;61422;-72
2022/07/12 11:28:42;;;;;;;2.10;0.70;;;;;;;17.79;100.00;99280.59;105267;1271;61416;-73
2022/07/12 11:31:11;;;;;;;2.30;0.50;;;;;;;18.09;100.00;99279.66;105217;1271;76417;-71
2022/07/12 11:33:40;;;;;;;1.20;0.60;;;;;;;18.36;100.00;99278.94;105244;1268;68484;-72
2022/07/12 11:36:12;;;;;;;0.50;0.50;;;;;;;18.67;100.00;99274.48;105237;1268;73239;-72